Terminal Aerodrome Forecast
Issued by NWS Pittsburgh, PA

Current Version | Previous Version | Text Only | Print | Product List | Glossary Off
Versions: 1 2 3 4 5 6 7 8 9 10 11 12 13 14 15 16 17 18 19 20 21 22 23 24 25 26 27 28 29 30 31 32 33

000
FTUS41 KPBZ 220532
TAFPIT
TAF
KPIT 220532Z 2206/2312 11003KT P6SM VCSH OVC120
      TEMPO 2209/2212 5SM BR
     FM221800 08007KT P6SM BKN100
     FM230100 09010G18KT P6SM VCSH OVC030
     FM230500 08012G20KT 4SM -SHRA BR OVC020=

USA.gov is the U.S. government's official web portal to all federal, state and local government web resources and services.